createdAt,value
2023-03-16T00:00:27.224Z,99.90
2023-03-16T00:03:51.313Z,99.90
2023-03-16T00:07:08.808Z,99.90
2023-03-16T00:10:04.969Z,99.90
2023-03-16T00:13:04.731Z,99.90
2023-03-16T00:16:27.509Z,99.90
2023-03-16T00:19:40.576Z,99.90
2023-03-16T00:22:23.310Z,99.90
2023-03-16T00:25:32.236Z,99.90
2023-03-16T00:28:52.713Z,99.90
2023-03-16T00:32:02.755Z,99.90
2023-03-16T00:34:57.205Z,99.90
2023-03-16T00:37:46.936Z,99.90
2023-03-16T00:40:54.218Z,99.90
2023-03-16T00:43:44.043Z,99.90
2023-03-16T00:46:15.984Z,99.90
2023-03-16T00:51:34.046Z,99.90
2023-03-16T00:54:05.562Z,99.90
2023-03-16T00:56:46.358Z,99.90
2023-03-16T01:00:13.179Z,99.90
2023-03-16T01:02:45.509Z,99.90
2023-03-16T01:05:21.699Z,99.90
2023-03-16T01:08:02.979Z,99.90
2023-03-16T01:10:32.169Z,99.90
2023-03-16T01:13:13.268Z,99.90
2023-03-16T01:16:00.183Z,99.90
2023-03-16T01:18:34.397Z,99.90
2023-03-16T01:21:06.160Z,99.90
2023-03-16T01:23:39.939Z,99.90
2023-03-16T01:26:12.011Z,99.90
2023-03-16T01:28:58.711Z,99.90
2023-03-16T01:31:32.072Z,99.90
2023-03-16T01:34:17.651Z,99.90
2023-03-16T01:36:52.007Z,99.90
2023-03-16T01:39:27.430Z,99.90
2023-03-16T01:42:01.891Z,99.90
2023-03-16T01:44:54.971Z,99.90
2023-03-16T01:47:26.932Z,99.90
2023-03-16T01:50:08.628Z,99.90
2023-03-16T01:52:55.490Z,99.90
2023-03-16T01:55:25.370Z,99.90
2023-03-16T01:58:03.661Z,99.90
2023-03-16T02:00:38.349Z,99.90
2023-03-16T02:03:36.250Z,99.90
2023-03-16T02:06:15.335Z,99.90
2023-03-16T02:08:51.581Z,99.90
2023-03-16T02:11:49.620Z,99.90
2023-03-16T02:14:18.522Z,99.90
2023-03-16T02:16:51.812Z,99.90
2023-03-16T02:19:32.120Z,99.90
2023-03-16T02:22:06.933Z,99.90
2023-03-16T02:24:43.300Z,99.90
2023-03-16T02:27:29.740Z,99.90
2023-03-16T02:30:08.160Z,99.90
2023-03-16T02:32:39.612Z,99.90
2023-03-16T02:35:27.389Z,99.90
2023-03-16T02:37:59.980Z,99.90
2023-03-16T02:40:33.431Z,99.90
2023-03-16T02:43:08.085Z,99.90
2023-03-16T02:46:05.865Z,99.90
2023-03-16T02:48:43.529Z,99.90
2023-03-16T02:51:18.661Z,99.90
2023-03-16T02:53:51.841Z,99.90
2023-03-16T02:56:31.647Z,99.90
2023-03-16T02:59:01.365Z,99.90
2023-03-16T03:01:35.155Z,99.90
2023-03-16T03:04:04.064Z,99.90
2023-03-16T03:06:37.926Z,99.90
2023-03-16T03:09:08.407Z,99.90
2023-03-16T03:11:47.983Z,99.90
2023-03-16T03:14:19.481Z,99.90
2023-03-16T03:16:54.149Z,99.90
2023-03-16T03:19:25.260Z,99.90
2023-03-16T03:22:02.300Z,99.90
2023-03-16T03:24:34.685Z,99.90
2023-03-16T03:27:07.980Z,99.90
2023-03-16T03:29:38.918Z,99.90
2023-03-16T03:32:24.977Z,99.90
2023-03-16T03:35:28.224Z,99.90
2023-03-16T03:38:11.331Z,99.90
2023-03-16T03:40:46.069Z,99.90
2023-03-16T03:43:40.345Z,99.90
2023-03-16T03:46:27.355Z,99.90
2023-03-16T03:49:08.532Z,99.90
2023-03-16T03:51:39.333Z,99.90
2023-03-16T03:54:11.384Z,99.90
2023-03-16T03:56:49.079Z,99.90
2023-03-16T03:59:25.334Z,99.90
2023-03-16T04:01:55.272Z,99.90
2023-03-16T04:04:29.250Z,99.90
2023-03-16T04:07:01.211Z,99.90
2023-03-16T04:09:36.624Z,99.90
2023-03-16T04:12:14.574Z,99.90
2023-03-16T04:14:43.581Z,99.90
2023-03-16T04:17:13.750Z,99.90
2023-03-16T04:19:58.939Z,99.90
2023-03-16T04:22:37.224Z,99.90
2023-03-16T04:25:23.818Z,99.90
2023-03-16T04:27:52.743Z,99.90
2023-03-16T04:30:24.841Z,99.90
2023-03-16T04:32:58.065Z,99.90
2023-03-16T04:35:36.394Z,99.90
2023-03-16T04:38:06.321Z,99.90
2023-03-16T04:40:37.453Z,99.90
2023-03-16T04:43:37.123Z,99.90
2023-03-16T04:46:20.730Z,99.90
2023-03-16T04:49:09.860Z,99.90
2023-03-16T04:51:50.060Z,99.90
2023-03-16T04:54:19.042Z,99.90
2023-03-16T04:56:50.743Z,99.90
2023-03-16T04:59:23.835Z,99.90
2023-03-16T05:01:57.381Z,99.90
2023-03-16T05:04:30.481Z,99.90
2023-03-16T05:07:06.070Z,99.90
2023-03-16T05:09:45.168Z,99.90
2023-03-16T05:15:01.928Z,99.90
2023-03-16T05:17:32.094Z,99.90
2023-03-16T05:20:06.500Z,99.90
2023-03-16T05:22:37.950Z,99.90
2023-03-16T05:25:23.904Z,99.90
2023-03-16T05:28:08.378Z,99.90
2023-03-16T05:30:38.141Z,99.90
2023-03-16T05:33:10.041Z,99.90
2023-03-16T05:35:39.602Z,99.90
2023-03-16T05:38:55.094Z,99.90
2023-03-16T05:41:27.567Z,99.90
2023-03-16T05:43:58.674Z,99.90
2023-03-16T05:46:31.617Z,99.90
2023-03-16T05:49:15.844Z,99.90
2023-03-16T05:51:46.794Z,99.90
2023-03-16T05:54:20.444Z,99.90
2023-03-16T05:56:50.402Z,99.90
2023-03-16T05:59:21.994Z,99.90
2023-03-16T06:01:56.351Z,99.90
2023-03-16T06:07:10.913Z,99.90
2023-03-16T06:09:56.514Z,99.90
2023-03-16T06:12:27.173Z,99.90
2023-03-16T06:14:57.223Z,99.90
2023-03-16T06:17:25.742Z,99.90
2023-03-16T06:19:55.434Z,99.90
2023-03-16T06:22:27.825Z,99.90
2023-03-16T06:25:01.112Z,99.90
2023-03-16T06:27:30.895Z,99.90
2023-03-16T06:30:24.795Z,99.90
2023-03-16T06:33:02.685Z,99.90
2023-03-16T06:35:35.381Z,99.90
2023-03-16T06:38:05.426Z,99.90
2023-03-16T06:40:58.447Z,99.90
2023-03-16T06:43:29.514Z,99.90
2023-03-16T06:46:03.490Z,99.90
2023-03-16T06:48:36.228Z,99.90
2023-03-16T06:51:07.816Z,99.90
2023-03-16T06:53:37.770Z,99.90
2023-03-16T06:56:11.377Z,99.90
2023-03-16T06:58:43.587Z,99.90
2023-03-16T07:01:30.470Z,99.90
2023-03-16T07:06:43.835Z,99.90
2023-03-16T07:09:38.217Z,99.90
2023-03-16T07:12:10.213Z,99.90
2023-03-16T07:14:42.212Z,99.90
2023-03-16T07:17:13.805Z,99.90
2023-03-16T07:19:43.993Z,99.90
2023-03-16T07:22:40.362Z,99.90
2023-03-16T07:25:14.362Z,99.90
2023-03-16T07:27:47.708Z,99.90
2023-03-16T07:30:23.104Z,99.90
2023-03-16T07:32:51.928Z,99.90
2023-03-16T07:35:22.362Z,99.90
2023-03-16T07:37:54.551Z,99.90
2023-03-16T07:40:24.196Z,99.90
2023-03-16T07:43:09.316Z,99.90
2023-03-16T07:45:38.353Z,99.90
2023-03-16T07:48:08.622Z,99.90
2023-03-16T07:50:39.981Z,99.90
2023-03-16T07:53:11.932Z,99.90
2023-03-16T07:55:45.321Z,99.90
2023-03-16T07:58:16.477Z,99.90
2023-03-16T08:00:48.670Z,99.90
2023-03-16T08:03:18.766Z,99.90
2023-03-16T08:05:52.110Z,99.90
2023-03-16T08:08:24.502Z,99.90
2023-03-16T08:11:00.138Z,99.90
2023-03-16T08:13:30.347Z,99.90
2023-03-16T08:16:04.939Z,99.90
2023-03-16T08:18:34.899Z,99.90
2023-03-16T08:21:05.102Z,99.90
2023-03-16T08:24:00.742Z,99.90
2023-03-16T08:29:19.676Z,99.90
2023-03-16T08:31:49.632Z,99.90
2023-03-16T08:34:19.371Z,99.90
2023-03-16T08:36:49.034Z,99.90
2023-03-16T08:39:34.388Z,99.90
2023-03-16T08:42:05.509Z,99.90
2023-03-16T08:44:44.108Z,94.90
2023-03-16T08:47:16.970Z,99.90
2023-03-16T08:49:49.372Z,99.90
2023-03-16T08:52:21.085Z,99.90
2023-03-16T08:55:02.418Z,99.90
2023-03-16T08:57:35.499Z,99.90
2023-03-16T09:00:13.666Z,99.90
2023-03-16T09:02:44.209Z,99.90
2023-03-16T09:05:14.876Z,99.90
2023-03-16T09:07:44.112Z,99.90
2023-03-16T09:10:16.535Z,99.90
2023-03-16T09:12:49.298Z,99.90
2023-03-16T09:15:24.812Z,95.20
2023-03-16T09:18:01.284Z,97.40
2023-03-16T09:20:33.241Z,92.90
2023-03-16T09:23:07.211Z,81.70
2023-03-16T09:25:36.785Z,99.40
2023-03-16T09:28:09.044Z,83.60
2023-03-16T09:30:47.422Z,99.90
2023-03-16T09:33:19.011Z,99.90
2023-03-16T09:35:47.754Z,99.90
2023-03-16T09:38:24.096Z,99.50
2023-03-16T09:41:02.196Z,99.90
2023-03-16T09:44:00.432Z,99.90
2023-03-16T09:46:43.631Z,99.90
2023-03-16T09:49:20.482Z,99.90
2023-03-16T09:51:53.258Z,99.90
2023-03-16T09:54:30.265Z,99.90
2023-03-16T09:57:03.734Z,99.90
2023-03-16T09:59:32.762Z,99.90
2023-03-16T10:02:21.319Z,99.90
2023-03-16T10:05:06.523Z,99.90
2023-03-16T10:07:54.388Z,99.90
2023-03-16T10:10:40.886Z,99.90
2023-03-16T10:13:33.854Z,99.90
2023-03-16T10:16:11.156Z,99.90
2023-03-16T10:18:54.998Z,84.70
2023-03-16T10:21:26.026Z,95.60
2023-03-16T10:24:02.979Z,79.40
2023-03-16T10:26:41.032Z,83.10
2023-03-16T10:29:18.194Z,91.80
2023-03-16T10:31:51.799Z,99.90
2023-03-16T10:34:27.761Z,92.10
2023-03-16T10:36:57.019Z,99.90
2023-03-16T10:39:27.682Z,99.90
2023-03-16T10:42:01.857Z,94.80
2023-03-16T10:44:41.353Z,93.70
2023-03-16T10:47:20.175Z,96.80
2023-03-16T10:49:53.481Z,99.20
2023-03-16T10:52:34.568Z,94.10
2023-03-16T10:55:12.732Z,99.90
2023-03-16T10:57:47.994Z,82.90
2023-03-16T11:00:21.736Z,85.00
2023-03-16T11:02:54.411Z,71.20
2023-03-16T11:05:36.255Z,68.10
2023-03-16T11:08:15.304Z,60.70
2023-03-16T11:10:55.965Z,58.60
2023-03-16T11:13:39.046Z,62.40
2023-03-16T11:16:25.196Z,54.40
2023-03-16T11:19:02.430Z,54.90
2023-03-16T11:21:46.712Z,58.00
2023-03-16T11:24:26.400Z,49.50
2023-03-16T11:26:57.982Z,49.90
2023-03-16T11:29:40.912Z,56.90
2023-03-16T11:32:15.880Z,51.40
2023-03-16T11:35:00.282Z,46.60
2023-03-16T11:37:43.355Z,45.50
2023-03-16T11:40:55.142Z,46.10
2023-03-16T11:43:50.431Z,45.50
2023-03-16T11:46:27.787Z,45.60
2023-03-16T11:49:19.341Z,46.10
2023-03-16T11:52:07.652Z,44.60
2023-03-16T11:54:59.489Z,47.10
2023-03-16T11:57:46.981Z,50.80
2023-03-16T12:00:33.452Z,48.00
2023-03-16T12:03:47.265Z,54.90
2023-03-16T12:06:30.030Z,49.70
2023-03-16T12:09:14.469Z,53.50
2023-03-16T12:11:59.345Z,47.60
2023-03-16T12:14:37.669Z,50.20
2023-03-16T12:17:16.358Z,52.00
2023-03-16T12:19:56.707Z,47.70
2023-03-16T12:22:31.286Z,44.30
2023-03-16T12:25:03.932Z,44.30
2023-03-16T12:27:37.973Z,41.30
2023-03-16T12:30:27.640Z,42.60
2023-03-16T12:33:17.185Z,46.40
2023-03-16T12:35:51.457Z,39.90
2023-03-16T12:38:44.191Z,41.70
2023-03-16T12:41:38.322Z,41.20
2023-03-16T12:44:18.718Z,42.90
2023-03-16T12:47:00.092Z,39.10
2023-03-16T12:49:39.296Z,41.50
2023-03-16T12:52:14.839Z,37.40
2023-03-16T12:54:55.755Z,37.80
2023-03-16T12:57:31.448Z,36.90
2023-03-16T13:00:12.056Z,38.50
2023-03-16T13:03:04.546Z,41.60
2023-03-16T13:05:59.593Z,38.30
2023-03-16T13:08:30.785Z,40.70
2023-03-16T13:11:14.986Z,40.00
2023-03-16T13:13:58.085Z,38.20
2023-03-16T13:16:36.418Z,37.60
2023-03-16T13:19:38.371Z,41.30
2023-03-16T13:22:29.112Z,39.70
2023-03-16T13:25:18.872Z,43.00
2023-03-16T13:28:06.710Z,40.60
2023-03-16T13:30:41.331Z,41.60
2023-03-16T13:33:23.540Z,45.60
2023-03-16T13:36:03.761Z,46.30
2023-03-16T13:38:41.846Z,45.60
2023-03-16T13:41:16.669Z,48.40
2023-03-16T13:43:45.675Z,46.20
2023-03-16T13:46:22.910Z,49.20
2023-03-16T13:48:51.753Z,48.50
2023-03-16T13:51:24.355Z,48.00
2023-03-16T13:53:58.029Z,48.70
2023-03-16T13:56:32.703Z,50.90
2023-03-16T13:59:01.973Z,47.90
2023-03-16T14:01:40.715Z,52.70
2023-03-16T14:04:26.566Z,52.50
2023-03-16T14:07:05.418Z,57.20
2023-03-16T14:09:38.952Z,60.10
2023-03-16T14:12:13.714Z,67.90
2023-03-16T14:14:43.849Z,59.20
2023-03-16T14:17:28.241Z,75.00
2023-03-16T14:20:03.112Z,58.40
2023-03-16T14:22:37.623Z,68.00
2023-03-16T14:25:12.175Z,56.50
2023-03-16T14:27:49.463Z,56.10
2023-03-16T14:30:25.966Z,56.00
2023-03-16T14:33:03.378Z,55.30
2023-03-16T14:35:44.139Z,54.80
2023-03-16T14:38:30.611Z,60.00
2023-03-16T14:41:11.863Z,54.10
2023-03-16T14:43:53.464Z,55.40
2023-03-16T14:46:34.199Z,52.00
2023-03-16T14:49:07.607Z,53.70
2023-03-16T14:51:42.834Z,51.80
2023-03-16T14:54:24.789Z,54.40
2023-03-16T14:57:01.091Z,54.20
2023-03-16T14:59:39.398Z,51.20
2023-03-16T15:02:21.377Z,54.30
2023-03-16T15:04:51.486Z,54.90
2023-03-16T15:07:26.868Z,53.00
2023-03-16T15:10:05.496Z,53.10
2023-03-16T15:12:38.615Z,55.70
2023-03-16T15:15:22.874Z,57.40
2023-03-16T15:17:54.906Z,55.80
2023-03-16T15:20:26.985Z,57.60
2023-03-16T15:22:59.266Z,57.70
2023-03-16T15:25:38.043Z,80.50
2023-03-16T15:28:17.649Z,69.30
2023-03-16T15:30:50.655Z,86.50
2023-03-16T15:33:22.326Z,73.30
2023-03-16T15:35:56.577Z,91.60
2023-03-16T15:38:31.803Z,68.80
2023-03-16T15:41:13.945Z,74.00
2023-03-16T15:43:50.395Z,72.50
2023-03-16T15:46:34.296Z,79.10
2023-03-16T15:49:06.646Z,63.50
2023-03-16T15:51:39.504Z,62.30
2023-03-16T15:54:13.757Z,75.30
2023-03-16T15:56:55.938Z,73.00
2023-03-16T15:59:28.971Z,74.10
2023-03-16T16:02:06.786Z,79.60
2023-03-16T16:04:39.452Z,67.80
2023-03-16T16:07:23.136Z,75.40
2023-03-16T16:10:03.368Z,79.80
2023-03-16T16:12:40.167Z,95.30
2023-03-16T16:15:22.924Z,99.90
2023-03-16T16:18:19.994Z,99.90
2023-03-16T16:20:53.712Z,78.20
2023-03-16T16:23:27.038Z,99.90
2023-03-16T16:26:02.361Z,92.70
2023-03-16T16:28:37.727Z,99.90
2023-03-16T16:31:16.528Z,74.50
2023-03-16T16:34:00.327Z,99.90
2023-03-16T16:36:32.546Z,96.50
2023-03-16T16:39:10.109Z,84.50
2023-03-16T16:41:44.493Z,91.70
2023-03-16T16:44:23.076Z,99.90
2023-03-16T16:47:17.592Z,99.90
2023-03-16T16:49:50.407Z,99.90
2023-03-16T16:52:24.513Z,99.90
2023-03-16T16:54:55.831Z,99.90
2023-03-16T16:57:31.070Z,99.90
2023-03-16T17:00:02.985Z,99.90
2023-03-16T17:02:46.368Z,99.90
2023-03-16T17:05:27.395Z,99.90
2023-03-16T17:08:07.128Z,99.90
2023-03-16T17:10:39.309Z,99.90
2023-03-16T17:13:27.142Z,99.90
2023-03-16T17:16:02.553Z,99.90
2023-03-16T17:18:44.446Z,99.90
2023-03-16T17:21:21.053Z,99.90
2023-03-16T17:26:54.724Z,99.90
2023-03-16T17:29:33.595Z,99.90
2023-03-16T17:32:20.868Z,99.90
2023-03-16T17:34:53.797Z,99.90
2023-03-16T17:37:32.291Z,99.90
2023-03-16T17:40:05.596Z,99.90
2023-03-16T17:42:42.373Z,99.90
2023-03-16T17:45:19.750Z,99.90
2023-03-16T17:47:51.465Z,99.90
2023-03-16T17:50:35.647Z,99.90
2023-03-16T17:53:10.574Z,99.90
2023-03-16T17:55:39.833Z,99.90
2023-03-16T17:58:27.674Z,99.90
2023-03-16T18:01:02.865Z,99.90
2023-03-16T18:03:38.194Z,99.90
2023-03-16T18:06:31.566Z,99.90
2023-03-16T18:09:06.317Z,99.90
2023-03-16T18:11:50.215Z,99.90
2023-03-16T18:14:42.106Z,99.90
2023-03-16T18:17:29.702Z,99.90
2023-03-16T18:20:01.033Z,99.90
2023-03-16T18:22:35.232Z,99.90
2023-03-16T18:25:05.713Z,99.90
2023-03-16T18:27:34.787Z,99.90
2023-03-16T18:30:14.601Z,99.90
2023-03-16T18:32:43.785Z,99.90
2023-03-16T18:35:19.492Z,99.90
2023-03-16T18:37:55.413Z,99.90
2023-03-16T18:40:33.966Z,99.90
2023-03-16T18:43:22.441Z,99.90
2023-03-16T18:46:09.968Z,99.90
2023-03-16T18:48:39.773Z,99.90
2023-03-16T18:51:18.397Z,99.90
2023-03-16T18:53:50.518Z,99.90
2023-03-16T18:56:23.877Z,99.90
2023-03-16T18:58:55.041Z,99.90
2023-03-16T19:01:32.385Z,99.90
2023-03-16T19:04:03.316Z,99.90
2023-03-16T19:06:43.279Z,99.90
2023-03-16T19:09:19.433Z,99.90
2023-03-16T19:11:50.715Z,99.90
2023-03-16T19:14:24.159Z,99.90
2023-03-16T19:16:55.594Z,99.90
2023-03-16T19:19:26.236Z,99.90
2023-03-16T19:22:10.589Z,99.90
2023-03-16T19:24:51.944Z,99.90
2023-03-16T19:27:26.563Z,99.90
2023-03-16T19:29:57.455Z,99.90
2023-03-16T19:32:36.142Z,99.90
2023-03-16T19:35:17.812Z,99.90
2023-03-16T19:37:54.838Z,99.90
2023-03-16T19:40:31.681Z,99.90
2023-03-16T19:43:06.323Z,99.90
2023-03-16T19:45:36.170Z,99.90
2023-03-16T19:48:17.828Z,99.90
2023-03-16T19:50:51.385Z,99.90
2023-03-16T19:53:24.474Z,99.90
2023-03-16T19:56:19.114Z,99.90
2023-03-16T19:59:10.392Z,99.90
2023-03-16T20:01:39.909Z,99.90
2023-03-16T20:04:34.581Z,99.90
2023-03-16T20:10:12.398Z,99.90
2023-03-16T20:12:51.223Z,99.90
2023-03-16T20:15:26.054Z,99.90
2023-03-16T20:17:59.252Z,99.90
2023-03-16T20:20:31.385Z,99.90
2023-03-16T20:23:05.144Z,99.90
2023-03-16T20:25:38.125Z,99.90
2023-03-16T20:28:29.728Z,99.90
2023-03-16T20:31:10.893Z,99.90
2023-03-16T20:33:52.226Z,99.90
2023-03-16T20:36:30.886Z,99.90
2023-03-16T20:39:14.823Z,99.90
2023-03-16T20:41:47.201Z,99.90
2023-03-16T20:44:33.952Z,99.90
2023-03-16T20:47:05.582Z,99.90
2023-03-16T20:49:39.245Z,99.90
2023-03-16T20:52:26.568Z,99.90
2023-03-16T20:55:08.232Z,99.90
2023-03-16T20:57:40.574Z,99.90
2023-03-16T21:00:21.908Z,99.90
2023-03-16T21:02:50.904Z,99.90
2023-03-16T21:05:29.410Z,99.90
2023-03-16T21:07:59.353Z,99.90
2023-03-16T21:10:35.090Z,99.90
2023-03-16T21:13:04.387Z,99.90
2023-03-16T21:15:35.707Z,99.90
2023-03-16T21:18:07.591Z,99.90
2023-03-16T21:20:38.439Z,99.90
2023-03-16T21:23:14.651Z,99.90
2023-03-16T21:25:54.117Z,99.90
2023-03-16T21:28:24.511Z,99.90
2023-03-16T21:31:02.577Z,99.90
2023-03-16T21:33:37.577Z,99.90
2023-03-16T21:36:08.905Z,99.90
2023-03-16T21:38:37.814Z,99.90
2023-03-16T21:41:07.510Z,99.90
2023-03-16T21:43:50.239Z,99.90
2023-03-16T21:46:37.638Z,99.90
2023-03-16T21:49:11.148Z,99.90
2023-03-16T21:51:43.321Z,99.90
2023-03-16T21:54:15.444Z,99.90
2023-03-16T21:56:44.407Z,99.90
2023-03-16T21:59:16.773Z,99.90
2023-03-16T22:02:01.730Z,99.90
2023-03-16T22:04:34.287Z,99.90
2023-03-16T22:07:04.163Z,99.90
2023-03-16T22:09:33.925Z,99.90
2023-03-16T22:12:02.696Z,99.90
2023-03-16T22:14:35.917Z,99.90
2023-03-16T22:17:15.947Z,99.90
2023-03-16T22:19:44.918Z,99.90
2023-03-16T22:22:18.857Z,99.90
2023-03-16T22:24:58.638Z,99.90
2023-03-16T22:27:30.567Z,99.90
2023-03-16T22:30:00.010Z,99.90
2023-03-16T22:32:42.940Z,99.90
2023-03-16T22:35:31.524Z,99.90
2023-03-16T22:38:11.800Z,99.90
2023-03-16T22:40:42.890Z,99.90
2023-03-16T22:43:20.551Z,99.90
2023-03-16T22:46:04.027Z,99.90
2023-03-16T22:48:39.669Z,99.90
2023-03-16T22:51:23.793Z,99.90
2023-03-16T22:56:48.074Z,99.90
2023-03-16T22:59:20.040Z,99.90
2023-03-16T23:01:51.170Z,99.90
2023-03-16T23:04:33.717Z,99.90
2023-03-16T23:07:09.717Z,99.90
2023-03-16T23:09:42.093Z,99.90
2023-03-16T23:12:26.014Z,99.90
2023-03-16T23:14:56.036Z,99.90
2023-03-16T23:17:27.794Z,99.90
2023-03-16T23:20:00.138Z,99.90
2023-03-16T23:22:31.235Z,99.90
2023-03-16T23:25:15.364Z,99.90
2023-03-16T23:27:45.425Z,99.90
2023-03-16T23:30:26.161Z,99.90
2023-03-16T23:32:56.857Z,99.90
2023-03-16T23:35:29.290Z,99.90
2023-03-16T23:37:58.425Z,99.90
2023-03-16T23:40:30.103Z,99.90
2023-03-16T23:43:04.766Z,99.90
2023-03-16T23:45:39.465Z,99.90
2023-03-16T23:48:13.371Z,99.90
2023-03-16T23:50:44.625Z,99.90
2023-03-16T23:53:18.030Z,99.90
2023-03-16T23:55:54.033Z,99.90
2023-03-16T23:58:30.864Z,99.90
